createdAt,value
2022-07-25T00:02:57.905Z,61.1
2022-07-25T00:05:58.927Z,61.9
2022-07-25T00:10:18.436Z,60.4
2022-07-25T00:12:00.971Z,61.8
2022-07-25T00:18:03.026Z,63.9
2022-07-25T00:21:04.035Z,63.9
2022-07-25T00:24:05.065Z,61.7
2022-07-25T00:27:06.084Z,63.8
2022-07-25T00:30:07.116Z,64.3
2022-07-25T00:33:08.129Z,63.9
2022-07-25T00:36:09.148Z,59.9
2022-07-25T00:39:10.176Z,59.9
2022-07-25T00:40:28.000Z,59.1
2022-07-25T00:42:11.195Z,59.6
2022-07-25T00:45:12.228Z,58.8
2022-07-25T00:48:13.251Z,59.4
2022-07-25T00:51:14.269Z,59.5
2022-07-25T00:54:15.286Z,62.2
2022-07-25T00:57:16.301Z,62.3
2022-07-25T01:03:18.348Z,63.6
2022-07-25T01:06:19.369Z,63.8
2022-07-25T01:09:20.401Z,64.5
2022-07-25T01:10:38.934Z,64.6
2022-07-25T01:12:21.426Z,65.3
2022-07-25T01:15:22.453Z,65.7
2022-07-25T01:18:23.458Z,66.6
2022-07-25T01:21:24.495Z,67.5
2022-07-25T01:24:25.518Z,68.2
2022-07-25T01:27:26.528Z,68.4
2022-07-25T01:30:27.550Z,68.3
2022-07-25T01:33:28.572Z,68.7
2022-07-25T01:36:29.597Z,66.4
2022-07-25T01:39:30.618Z,67.9
2022-07-25T01:40:49.166Z,68.2
2022-07-25T01:42:31.639Z,68.1
2022-07-25T01:48:33.685Z,67.9
2022-07-25T01:51:34.722Z,67.8
2022-07-25T01:54:35.729Z,68.4
2022-07-25T01:57:36.751Z,67.6
2022-07-25T02:00:37.787Z,68.5
2022-07-25T02:03:38.803Z,68.7
2022-07-25T02:06:39.831Z,69
2022-07-25T02:09:40.850Z,68.9
2022-07-25T02:10:59.407Z,69
2022-07-25T02:12:41.875Z,69.2
2022-07-25T02:15:42.891Z,69.6
2022-07-25T02:18:43.911Z,67.8
2022-07-25T02:24:45.964Z,68
2022-07-25T02:27:46.987Z,68
2022-07-25T02:30:48.009Z,68.9
2022-07-25T02:33:49.021Z,68
2022-07-25T02:36:50.059Z,67
2022-07-25T02:41:09.664Z,67.6
2022-07-25T02:42:52.107Z,68
2022-07-25T02:45:53.114Z,67.4
2022-07-25T02:48:54.147Z,69.3
2022-07-25T02:54:56.192Z,68.8
2022-07-25T02:57:57.216Z,69.6
2022-07-25T03:00:58.225Z,69.8
2022-07-25T03:03:59.265Z,69.1
2022-07-25T03:07:00.277Z,70.5
2022-07-25T03:11:19.897Z,70.3
2022-07-25T03:13:02.322Z,70.3
2022-07-25T03:16:03.356Z,70.5
2022-07-25T03:19:04.370Z,70.5
2022-07-25T03:22:05.388Z,70.3
2022-07-25T03:25:06.410Z,70.7
2022-07-25T03:28:07.433Z,71
2022-07-25T03:31:08.469Z,71.4
2022-07-25T03:34:09.475Z,71.6
2022-07-25T03:37:10.500Z,71.4
2022-07-25T03:40:11.536Z,70.6
2022-07-25T03:41:30.153Z,70.2
2022-07-25T03:46:13.572Z,69.3
2022-07-25T03:49:14.587Z,68.9
2022-07-25T03:52:15.621Z,68.6
2022-07-25T03:55:16.639Z,68.5
2022-07-25T03:58:17.672Z,68.6
2022-07-25T04:01:18.691Z,67.9
2022-07-25T04:04:19.700Z,69.9
2022-07-25T04:07:20.722Z,70.2
2022-07-25T04:11:40.383Z,71
2022-07-25T04:13:22.766Z,71.1
2022-07-25T04:16:23.792Z,71.7
2022-07-25T04:19:24.820Z,71.4
2022-07-25T04:25:26.870Z,70.3
2022-07-25T04:28:27.895Z,70.2
2022-07-25T04:31:28.919Z,69.9
2022-07-25T04:34:29.937Z,71.7
2022-07-25T04:40:31.973Z,70.3
2022-07-25T04:41:50.628Z,70.3
2022-07-25T04:43:32.997Z,70.7
2022-07-25T04:49:35.053Z,71.7
2022-07-25T04:52:36.062Z,72.1
2022-07-25T04:58:38.107Z,71.4
2022-07-25T05:01:39.128Z,71.9
2022-07-25T05:07:41.186Z,73
2022-07-25T05:10:42.203Z,72.5
2022-07-25T05:12:00.884Z,72.4
2022-07-25T05:19:45.275Z,71.4
2022-07-25T05:25:47.313Z,69.9
2022-07-25T05:28:48.344Z,69.3
2022-07-25T05:31:49.358Z,69.1
2022-07-25T05:34:50.390Z,68.2
2022-07-25T05:37:51.399Z,68
2022-07-25T05:40:52.434Z,67.5
2022-07-25T05:42:11.108Z,67.3
2022-07-25T05:43:53.442Z,67.2
2022-07-25T05:46:54.474Z,66.7
2022-07-25T05:52:56.521Z,65.9
2022-07-25T05:55:57.541Z,65.2
2022-07-25T05:58:58.572Z,64.9
2022-07-25T06:01:59.582Z,65
2022-07-25T06:05:00.611Z,64.8
2022-07-25T06:11:02.662Z,64.2
2022-07-25T06:12:21.365Z,63.5
2022-07-25T06:14:03.676Z,63.2
2022-07-25T06:17:04.709Z,63.2
2022-07-25T06:20:05.728Z,62.4
2022-07-25T06:23:06.736Z,62.3
2022-07-25T06:26:07.775Z,61.5
2022-07-25T06:29:08.786Z,61.5
2022-07-25T06:32:09.800Z,60.3
2022-07-25T06:38:11.000Z,59.1
2022-07-25T06:42:31.600Z,57.5
2022-07-25T06:47:14.917Z,57
2022-07-25T06:50:15.941Z,56.5
2022-07-25T06:53:16.960Z,55.5
2022-07-25T06:56:17.982Z,54.8
2022-07-25T07:05:21.064Z,53
2022-07-25T07:08:22.078Z,52.5
2022-07-25T07:12:41.840Z,51.3
2022-07-25T07:20:26.177Z,49.6
2022-07-25T07:23:27.185Z,48.5
2022-07-25T07:29:29.244Z,40.6
2022-07-25T07:32:30.267Z,37
2022-07-25T07:35:31.281Z,34.5
2022-07-25T07:38:32.309Z,33.3
2022-07-25T07:41:33.333Z,33.1
2022-07-25T07:42:52.089Z,32.9
2022-07-25T07:44:34.353Z,32.5
2022-07-25T07:47:35.388Z,33.1
2022-07-25T07:50:36.398Z,34.8
2022-07-25T07:53:37.430Z,36.9
2022-07-25T07:56:38.453Z,38.5
2022-07-25T07:59:39.489Z,40.4
2022-07-25T08:02:40.513Z,41
2022-07-25T08:05:41.528Z,42.3
2022-07-25T08:08:42.562Z,41.9
2022-07-25T08:13:02.354Z,41.4
2022-07-25T08:14:44.610Z,41.6
2022-07-25T08:17:45.617Z,42.4
2022-07-25T08:20:46.661Z,42.5
2022-07-25T08:23:47.683Z,41.9
2022-07-25T08:26:48.689Z,41.2
2022-07-25T08:29:49.722Z,39.9
2022-07-25T08:32:50.754Z,40.2
2022-07-25T08:35:51.766Z,39.9
2022-07-25T08:38:52.781Z,39.2
2022-07-25T08:41:53.814Z,39.1
2022-07-25T08:43:12.607Z,39
2022-07-25T08:44:54.837Z,38.6
2022-07-25T08:47:55.868Z,39
2022-07-25T08:50:56.883Z,38.7
2022-07-25T08:53:57.904Z,38.9
2022-07-25T08:56:58.939Z,39
2022-07-25T08:59:59.947Z,37.4
2022-07-25T09:03:00.978Z,38.4
2022-07-25T09:06:01.995Z,37.4
2022-07-25T09:09:03.023Z,36.3
2022-07-25T09:12:04.057Z,37.6
2022-07-25T09:13:22.856Z,36.6
2022-07-25T09:15:05.065Z,36.2
2022-07-25T09:18:06.089Z,36.3
2022-07-25T09:21:07.113Z,36.2
2022-07-25T09:24:08.137Z,36.6
2022-07-25T09:27:09.175Z,35.5
2022-07-25T09:30:10.200Z,36
2022-07-25T09:33:11.225Z,35.8
2022-07-25T09:39:13.263Z,35.8
2022-07-25T09:42:14.289Z,35.7
2022-07-25T09:43:33.120Z,36.2
2022-07-25T09:45:15.307Z,35.2
2022-07-25T09:48:16.332Z,36
2022-07-25T09:51:17.358Z,34.9
2022-07-25T09:54:18.375Z,34.6
2022-07-25T10:00:20.431Z,34.1
2022-07-25T10:03:21.449Z,33.9
2022-07-25T10:06:22.480Z,34.5
2022-07-25T10:12:24.523Z,33.8
2022-07-25T10:13:43.365Z,32.8
2022-07-25T10:15:25.547Z,33.7
2022-07-25T10:18:26.566Z,33.2
2022-07-25T10:21:27.600Z,33.5
2022-07-25T10:24:28.624Z,33
2022-07-25T10:27:29.641Z,33.3
2022-07-25T10:30:30.653Z,33
2022-07-25T10:33:31.695Z,33.7
2022-07-25T10:36:32.706Z,32.6
2022-07-25T10:39:33.739Z,33.4
2022-07-25T10:42:34.755Z,33.1
2022-07-25T10:43:53.623Z,33
2022-07-25T10:45:35.772Z,33.1
2022-07-25T10:48:36.800Z,33.1
2022-07-25T10:51:37.828Z,33.3
2022-07-25T10:54:38.846Z,32.4
2022-07-25T10:57:39.867Z,32.6
2022-07-25T11:00:40.901Z,32.4
2022-07-25T11:03:41.917Z,32.9
2022-07-25T11:06:42.947Z,32.5
2022-07-25T11:09:43.980Z,32.6
2022-07-25T11:12:44.989Z,32.7
2022-07-25T11:14:03.878Z,30.8
2022-07-25T11:15:46.022Z,31
2022-07-25T11:18:47.037Z,31
2022-07-25T11:21:48.066Z,31.4
2022-07-25T11:24:49.091Z,31.9
2022-07-25T11:27:50.113Z,31.5
2022-07-25T11:30:51.129Z,31.1
2022-07-25T11:33:52.160Z,30.8
2022-07-25T11:36:53.179Z,31.3
2022-07-25T11:39:54.212Z,31
2022-07-25T11:42:55.227Z,30.2
2022-07-25T11:44:14.124Z,29.4
2022-07-25T11:45:56.250Z,29
2022-07-25T11:48:57.287Z,29.7
2022-07-25T11:51:58.306Z,29.4
2022-07-25T11:54:59.320Z,29.3
2022-07-25T11:58:00.341Z,30.1
2022-07-25T12:01:01.369Z,30.6
2022-07-25T12:04:02.394Z,30.9
2022-07-25T12:07:03.409Z,31.4
2022-07-25T12:10:04.443Z,30.5
2022-07-25T12:13:05.472Z,31
2022-07-25T12:14:24.384Z,30.2
2022-07-25T12:16:06.496Z,28.7
2022-07-25T12:19:07.505Z,29.1
2022-07-25T12:22:08.530Z,28.7
2022-07-25T12:25:09.557Z,28.9
2022-07-25T12:28:10.576Z,29.2
2022-07-25T12:34:12.643Z,29.4
2022-07-25T12:37:13.652Z,29.1
2022-07-25T12:40:14.687Z,29.3
2022-07-25T12:43:15.712Z,29.7
2022-07-25T12:44:34.636Z,28.9
2022-07-25T12:46:16.719Z,29.5
2022-07-25T12:49:17.750Z,29.9
2022-07-25T12:52:18.772Z,28.9
2022-07-25T12:55:19.793Z,29
2022-07-25T12:58:20.823Z,29.6
2022-07-25T13:01:21.845Z,29.4
2022-07-25T13:04:22.878Z,29.5
2022-07-25T13:07:23.897Z,29
2022-07-25T13:10:24.911Z,29.2
2022-07-25T13:14:44.888Z,29.6
2022-07-25T13:16:26.974Z,29.7
2022-07-25T13:19:27.998Z,29.2
2022-07-25T13:22:29.014Z,29.3
2022-07-25T13:25:30.047Z,29.5
2022-07-25T13:28:31.067Z,29
2022-07-25T13:31:32.077Z,29.1
2022-07-25T13:34:33.113Z,29.4
2022-07-25T13:37:34.140Z,28.7
2022-07-25T13:43:36.193Z,28.9
2022-07-25T13:44:55.153Z,29.2
2022-07-25T13:46:37.200Z,29.4
2022-07-25T13:49:38.224Z,29.1
2022-07-25T13:52:39.246Z,30.5
2022-07-25T13:55:40.285Z,29.7
2022-07-25T13:58:41.303Z,30.1
2022-07-25T14:01:42.318Z,30.8
2022-07-25T14:04:43.359Z,29.6
2022-07-25T14:10:45.393Z,29.6
2022-07-25T14:13:46.595Z,28.8
2022-07-25T14:15:05.420Z,28.9
2022-07-25T14:17:03.821Z,28.7
2022-07-25T14:20:04.845Z,27.9
2022-07-25T14:23:05.874Z,27.9
2022-07-25T14:26:06.892Z,28.6
2022-07-25T14:29:07.934Z,28.7
2022-07-25T14:32:08.952Z,29.7
2022-07-25T14:35:09.976Z,28.7
2022-07-25T14:38:11.001Z,28.6
2022-07-25T14:41:12.025Z,28.4
2022-07-25T14:44:13.035Z,29.3
2022-07-25T14:45:31.014Z,27.9
2022-07-25T14:47:14.072Z,28.4
2022-07-25T14:50:15.082Z,28.8
2022-07-25T14:53:16.107Z,28.8
2022-07-25T14:56:17.136Z,29.6
2022-07-25T14:59:18.155Z,28.9
2022-07-25T15:02:19.183Z,28.8
2022-07-25T15:05:20.217Z,29.2
2022-07-25T15:08:21.223Z,28.4
2022-07-25T15:11:22.249Z,28.6
2022-07-25T15:14:23.271Z,29.4
2022-07-25T15:15:41.284Z,29.4
2022-07-25T15:17:24.307Z,29.7
2022-07-25T15:20:25.335Z,29.9
2022-07-25T15:23:26.346Z,30.3
2022-07-25T15:26:27.380Z,30.4
2022-07-25T15:29:28.411Z,29.9
2022-07-25T15:32:29.425Z,30.8
2022-07-25T15:35:30.458Z,30.6
2022-07-25T15:38:31.479Z,30.8
2022-07-25T15:41:32.505Z,31.6
2022-07-25T15:44:33.527Z,32.2
2022-07-25T15:45:51.539Z,32.5
2022-07-25T15:47:34.537Z,32.6
2022-07-25T15:50:35.576Z,32.5
2022-07-25T15:53:36.602Z,33.4
2022-07-25T15:56:37.617Z,34.5
2022-07-25T15:59:38.632Z,33.8
2022-07-25T16:02:39.664Z,33.9
2022-07-25T16:05:40.690Z,33.7
2022-07-25T16:08:41.713Z,33
2022-07-25T16:11:42.743Z,33.8
2022-07-25T16:16:01.799Z,34.4
2022-07-25T16:17:44.780Z,34.7
2022-07-25T16:20:45.798Z,34.4
2022-07-25T16:26:47.849Z,35.2
2022-07-25T16:29:48.885Z,35.8
2022-07-25T16:32:49.905Z,35.7
2022-07-25T16:35:50.917Z,36.2
2022-07-25T16:41:52.983Z,38.6
2022-07-25T16:44:53.990Z,43.4
2022-07-25T16:46:12.023Z,47.2
2022-07-25T16:47:55.003Z,48.8
2022-07-25T16:50:56.036Z,50.4
2022-07-25T16:53:57.056Z,55.8
2022-07-25T16:56:58.068Z,62.3
2022-07-25T16:59:59.099Z,66.4
2022-07-25T17:03:00.129Z,72.5
2022-07-25T17:06:01.136Z,73.4
2022-07-25T17:09:02.169Z,76.3
2022-07-25T17:12:03.182Z,78.3
2022-07-25T17:15:04.221Z,78.6
2022-07-25T17:16:22.286Z,83.9
2022-07-25T17:18:05.242Z,82.2
2022-07-25T17:21:06.258Z,83.7
2022-07-25T17:24:07.272Z,83
2022-07-25T17:27:08.301Z,83.5
2022-07-25T17:30:09.324Z,83.7
2022-07-25T17:33:10.342Z,82.1
2022-07-25T17:36:11.373Z,81.4
2022-07-25T17:39:12.395Z,83.1
2022-07-25T17:42:13.420Z,84.5
2022-07-25T17:45:14.427Z,83.8
2022-07-25T17:46:32.531Z,83.2
2022-07-25T17:48:15.466Z,84
2022-07-25T17:51:16.478Z,83.4
2022-07-25T17:54:17.511Z,86.3
2022-07-25T17:57:18.523Z,86.4
2022-07-25T18:00:19.553Z,84.8
2022-07-25T18:03:20.582Z,83.5
2022-07-25T18:06:21.604Z,86.5
2022-07-25T18:09:22.628Z,84.6
2022-07-25T18:12:23.633Z,85
2022-07-25T18:15:24.654Z,86.9
2022-07-25T18:16:42.796Z,86.3
2022-07-25T18:18:25.694Z,85.6
2022-07-25T18:21:26.702Z,86.8
2022-07-25T18:24:27.735Z,86.6
2022-07-25T18:27:28.753Z,86.6
2022-07-25T18:30:29.776Z,86.5
2022-07-25T18:33:30.792Z,87.6
2022-07-25T18:36:31.824Z,87.2
2022-07-25T18:39:32.856Z,87.9
2022-07-25T18:42:33.864Z,86.7
2022-07-25T18:45:34.896Z,86.5
2022-07-25T18:46:53.034Z,88.2
2022-07-25T18:48:35.922Z,87.2
2022-07-25T18:51:36.948Z,87
2022-07-25T18:54:37.961Z,85.5
2022-07-25T18:57:38.990Z,85
2022-07-25T19:00:39.998Z,84.4
2022-07-25T19:03:41.032Z,84.9
2022-07-25T19:06:42.055Z,87
2022-07-25T19:09:43.072Z,87.8
2022-07-25T19:12:44.086Z,86.7
2022-07-25T19:15:45.110Z,86.5
2022-07-25T19:17:03.293Z,86.8
2022-07-25T19:18:46.139Z,86.3
2022-07-25T19:21:47.162Z,86.6
2022-07-25T19:24:48.190Z,87.4
2022-07-25T19:27:49.214Z,87.7
2022-07-25T19:30:50.231Z,88.1
2022-07-25T19:33:51.250Z,88.1
2022-07-25T19:36:52.276Z,87.6
2022-07-25T19:39:53.290Z,86.8
2022-07-25T19:42:54.328Z,88.4
2022-07-25T19:45:55.344Z,87.8
2022-07-25T19:47:13.529Z,88.1
2022-07-25T19:48:56.363Z,88.7
2022-07-25T19:51:57.398Z,89.1
2022-07-25T19:54:58.417Z,89.3
2022-07-25T19:57:59.443Z,88.6
2022-07-25T20:01:00.462Z,88.8
2022-07-25T20:04:01.478Z,89.1
2022-07-25T20:07:02.506Z,89.2
2022-07-25T20:10:03.530Z,89.3
2022-07-25T20:13:04.552Z,88.4
2022-07-25T20:16:05.564Z,88.8
2022-07-25T20:17:23.772Z,89.5
2022-07-25T20:19:06.603Z,89.2
2022-07-25T20:22:07.624Z,89.2
2022-07-25T20:25:08.650Z,89.6
2022-07-25T20:28:09.665Z,89.4
2022-07-25T20:31:10.688Z,89.2
2022-07-25T20:34:11.706Z,89.8
2022-07-25T20:37:12.733Z,88.8
2022-07-25T20:40:13.743Z,89.5
2022-07-25T20:43:14.765Z,90.3
2022-07-25T20:46:15.796Z,90
2022-07-25T20:47:34.020Z,90.3
2022-07-25T20:49:16.812Z,90.7
2022-07-25T20:52:17.843Z,90.2
2022-07-25T20:55:18.863Z,90.7
2022-07-25T20:58:19.892Z,90.2
2022-07-25T21:01:20.920Z,87.8
2022-07-25T21:04:21.930Z,85.8
2022-07-25T21:07:22.947Z,84.7
2022-07-25T21:10:23.982Z,83.5
2022-07-25T21:13:24.998Z,83.6
2022-07-25T21:16:26.024Z,83.2
2022-07-25T21:17:44.274Z,83.3
2022-07-25T21:19:27.052Z,83.2
2022-07-25T21:25:29.088Z,83.7
2022-07-25T21:28:30.116Z,83.1
2022-07-25T21:31:31.145Z,84.3
2022-07-25T21:34:32.157Z,84.4
2022-07-25T21:37:33.180Z,83.9
2022-07-25T21:40:34.199Z,83.6
2022-07-25T21:43:35.229Z,83.6
2022-07-25T21:46:36.253Z,83.6
2022-07-25T21:47:54.514Z,83.1
2022-07-25T21:49:37.282Z,83
2022-07-25T21:52:38.305Z,82.8
2022-07-25T21:55:39.308Z,83
2022-07-25T21:58:40.334Z,83
2022-07-25T22:01:41.353Z,83.6
2022-07-25T22:04:42.383Z,83
2022-07-25T22:10:44.439Z,83.5
2022-07-25T22:13:45.461Z,84
2022-07-25T22:16:46.465Z,83.8
2022-07-25T22:18:04.755Z,83.9
2022-07-25T22:19:47.504Z,83.8
2022-07-25T22:22:48.521Z,83.6
2022-07-25T22:25:49.537Z,83.5
2022-07-25T22:28:50.568Z,83.5
2022-07-25T22:31:51.583Z,83.2
2022-07-25T22:37:53.626Z,83.3
2022-07-25T22:40:54.664Z,83.2
2022-07-25T22:43:55.671Z,83.1
2022-07-25T22:46:56.698Z,83.7
2022-07-25T22:48:14.989Z,83.5
2022-07-25T22:49:57.715Z,83.5
2022-07-25T22:52:58.739Z,84
2022-07-25T22:55:59.769Z,83.4
2022-07-25T22:59:00.790Z,83.7
2022-07-25T23:02:01.820Z,83.6
2022-07-25T23:05:02.827Z,83.8
2022-07-25T23:08:03.859Z,84.3
2022-07-25T23:11:04.886Z,84.7
2022-07-25T23:14:05.912Z,85.9
2022-07-25T23:17:06.932Z,86.8
2022-07-25T23:18:25.230Z,88.1
2022-07-25T23:20:07.951Z,87.8
2022-07-25T23:23:08.975Z,88.3
2022-07-25T23:26:09.993Z,89
2022-07-25T23:29:11.011Z,89.2
2022-07-25T23:32:12.035Z,88.9
2022-07-25T23:35:13.059Z,89.6
2022-07-25T23:38:14.087Z,90.1
2022-07-25T23:41:15.108Z,90
2022-07-25T23:44:16.136Z,89.6
2022-07-25T23:47:17.140Z,89.9
2022-07-25T23:48:35.486Z,90.2
2022-07-25T23:50:18.173Z,90.6
2022-07-25T23:53:19.196Z,90.7
2022-07-25T23:59:21.240Z,91.4
